sensor_id;sensor_type;location;lat;lon;timestamp;P1;durP1;ratioP1;P2;durP2;ratioP2
28926;SDS011;16038;47.692;9.400;2022-12-18T00:00:28;89.50;;;37.28;;
28926;SDS011;16038;47.692;9.400;2022-12-18T00:02:55;91.25;;;36.33;;
28926;SDS011;16038;47.692;9.400;2022-12-18T00:05:21;86.10;;;34.78;;
28926;SDS011;16038;47.692;9.400;2022-12-18T00:07:46;80.22;;;34.40;;
28926;SDS011;16038;47.692;9.400;2022-12-18T00:10:11;82.15;;;33.88;;
28926;SDS011;16038;47.692;9.400;2022-12-18T00:12:37;83.43;;;33.60;;
28926;SDS011;16038;47.692;9.400;2022-12-18T00:15:02;90.72;;;36.47;;
28926;SDS011;16038;47.692;9.400;2022-12-18T00:17:28;83.35;;;35.28;;
28926;SDS011;16038;47.692;9.400;2022-12-18T00:19:56;77.80;;;34.22;;
28926;SDS011;16038;47.692;9.400;2022-12-18T00:22:21;82.65;;;33.00;;
28926;SDS011;16038;47.692;9.400;2022-12-18T00:24:47;86.20;;;35.42;;
28926;SDS011;16038;47.692;9.400;2022-12-18T00:27:13;84.03;;;35.00;;
28926;SDS011;16038;47.692;9.400;2022-12-18T00:29:40;85.55;;;34.00;;
28926;SDS011;16038;47.692;9.400;2022-12-18T00:32:05;90.35;;;35.55;;
28926;SDS011;16038;47.692;9.400;2022-12-18T00:34:30;90.65;;;35.97;;
28926;SDS011;16038;47.692;9.400;2022-12-18T00:36:56;85.05;;;33.67;;
28926;SDS011;16038;47.692;9.400;2022-12-18T00:39:21;88.82;;;35.40;;
28926;SDS011;16038;47.692;9.400;2022-12-18T00:41:47;91.03;;;35.10;;
28926;SDS011;16038;47.692;9.400;2022-12-18T00:44:31;82.20;;;33.50;;
28926;SDS011;16038;47.692;9.400;2022-12-18T00:46:56;85.47;;;33.00;;
28926;SDS011;16038;47.692;9.400;2022-12-18T00:49:21;94.53;;;34.80;;
28926;SDS011;16038;47.692;9.400;2022-12-18T00:51:47;98.68;;;40.92;;
28926;SDS011;16038;47.692;9.400;2022-12-18T00:54:13;84.90;;;34.80;;
28926;SDS011;16038;47.692;9.400;2022-12-18T00:56:38;95.28;;;38.70;;
28926;SDS011;16038;47.692;9.400;2022-12-18T00:59:04;89.75;;;34.65;;
28926;SDS011;16038;47.692;9.400;2022-12-18T01:01:30;90.95;;;38.10;;
28926;SDS011;16038;47.692;9.400;2022-12-18T01:03:55;95.63;;;38.38;;
28926;SDS011;16038;47.692;9.400;2022-12-18T01:06:21;79.88;;;33.60;;
28926;SDS011;16038;47.692;9.400;2022-12-18T01:08:47;77.88;;;32.67;;
28926;SDS011;16038;47.692;9.400;2022-12-18T01:11:14;93.63;;;35.05;;
28926;SDS011;16038;47.692;9.400;2022-12-18T01:13:41;90.27;;;35.13;;
28926;SDS011;16038;47.692;9.400;2022-12-18T01:16:07;82.38;;;31.45;;
28926;SDS011;16038;47.692;9.400;2022-12-18T01:18:35;83.07;;;30.52;;
28926;SDS011;16038;47.692;9.400;2022-12-18T01:21:05;89.13;;;33.97;;
28926;SDS011;16038;47.692;9.400;2022-12-18T01:23:31;85.53;;;31.30;;
28926;SDS011;16038;47.692;9.400;2022-12-18T01:25:56;84.07;;;32.55;;
28926;SDS011;16038;47.692;9.400;2022-12-18T01:28:23;87.90;;;35.90;;
28926;SDS011;16038;47.692;9.400;2022-12-18T01:30:48;85.22;;;34.30;;
28926;SDS011;16038;47.692;9.400;2022-12-18T01:33:14;80.47;;;31.00;;
28926;SDS011;16038;47.692;9.400;2022-12-18T01:35:40;82.78;;;33.33;;
28926;SDS011;16038;47.692;9.400;2022-12-18T01:38:06;85.97;;;33.65;;
28926;SDS011;16038;47.692;9.400;2022-12-18T01:40:32;91.50;;;32.42;;
28926;SDS011;16038;47.692;9.400;2022-12-18T01:42:57;97.07;;;34.08;;
28926;SDS011;16038;47.692;9.400;2022-12-18T01:45:24;97.65;;;33.65;;
28926;SDS011;16038;47.692;9.400;2022-12-18T01:47:52;90.25;;;33.45;;
28926;SDS011;16038;47.692;9.400;2022-12-18T01:52:49;101.25;;;37.05;;
28926;SDS011;16038;47.692;9.400;2022-12-18T01:55:19;103.03;;;37.60;;
28926;SDS011;16038;47.692;9.400;2022-12-18T01:57:47;93.53;;;34.47;;
28926;SDS011;16038;47.692;9.400;2022-12-18T02:00:17;104.13;;;36.50;;
28926;SDS011;16038;47.692;9.400;2022-12-18T02:02:44;110.78;;;35.97;;
28926;SDS011;16038;47.692;9.400;2022-12-18T02:05:12;104.88;;;34.78;;
28926;SDS011;16038;47.692;9.400;2022-12-18T02:10:34;103.15;;;33.17;;
28926;SDS011;16038;47.692;9.400;2022-12-18T02:13:14;106.32;;;35.88;;
28926;SDS011;16038;47.692;9.400;2022-12-18T02:19:00;103.43;;;37.00;;
28926;SDS011;16038;47.692;9.400;2022-12-18T02:21:51;94.63;;;33.77;;
28926;SDS011;16038;47.692;9.400;2022-12-18T02:24:32;107.57;;;38.78;;
28926;SDS011;16038;47.692;9.400;2022-12-18T02:27:05;108.93;;;39.90;;
28926;SDS011;16038;47.692;9.400;2022-12-18T02:29:35;108.88;;;37.65;;
28926;SDS011;16038;47.692;9.400;2022-12-18T02:32:02;105.20;;;37.47;;
28926;SDS011;16038;47.692;9.400;2022-12-18T02:34:32;117.00;;;40.30;;
28926;SDS011;16038;47.692;9.400;2022-12-18T02:37:03;115.75;;;37.72;;
28926;SDS011;16038;47.692;9.400;2022-12-18T02:39:33;107.70;;;38.55;;
28926;SDS011;16038;47.692;9.400;2022-12-18T02:42:00;117.38;;;39.97;;
28926;SDS011;16038;47.692;9.400;2022-12-18T02:44:32;116.18;;;37.92;;
28926;SDS011;16038;47.692;9.400;2022-12-18T02:46:58;113.90;;;36.63;;
28926;SDS011;16038;47.692;9.400;2022-12-18T02:51:56;114.10;;;35.17;;
28926;SDS011;16038;47.692;9.400;2022-12-18T02:57:25;121.05;;;38.35;;
28926;SDS011;16038;47.692;9.400;2022-12-18T03:00:16;112.70;;;35.60;;
28926;SDS011;16038;47.692;9.400;2022-12-18T03:02:47;102.00;;;35.03;;
28926;SDS011;16038;47.692;9.400;2022-12-18T03:05:35;105.68;;;34.90;;
28926;SDS011;16038;47.692;9.400;2022-12-18T03:08:17;105.72;;;33.10;;
28926;SDS011;16038;47.692;9.400;2022-12-18T03:13:19;112.47;;;35.72;;
28926;SDS011;16038;47.692;9.400;2022-12-18T03:15:49;106.68;;;39.22;;
28926;SDS011;16038;47.692;9.400;2022-12-18T03:18:19;106.18;;;33.70;;
28926;SDS011;16038;47.692;9.400;2022-12-18T03:20:49;108.82;;;38.53;;
28926;SDS011;16038;47.692;9.400;2022-12-18T03:23:20;110.80;;;34.13;;
28926;SDS011;16038;47.692;9.400;2022-12-18T03:25:49;106.20;;;35.10;;
28926;SDS011;16038;47.692;9.400;2022-12-18T03:28:20;106.25;;;35.47;;
28926;SDS011;16038;47.692;9.400;2022-12-18T03:30:47;111.38;;;33.60;;
28926;SDS011;16038;47.692;9.400;2022-12-18T03:33:19;110.05;;;36.42;;
28926;SDS011;16038;47.692;9.400;2022-12-18T03:35:50;113.72;;;36.22;;
28926;SDS011;16038;47.692;9.400;2022-12-18T03:38:16;110.20;;;35.53;;
28926;SDS011;16038;47.692;9.400;2022-12-18T03:40:48;110.95;;;37.53;;
28926;SDS011;16038;47.692;9.400;2022-12-18T03:46:24;109.30;;;35.55;;
28926;SDS011;16038;47.692;9.400;2022-12-18T03:48:55;109.65;;;34.90;;
28926;SDS011;16038;47.692;9.400;2022-12-18T03:51:50;107.10;;;36.30;;
28926;SDS011;16038;47.692;9.400;2022-12-18T03:54:20;107.45;;;34.85;;
28926;SDS011;16038;47.692;9.400;2022-12-18T03:56:48;102.50;;;37.30;;
28926;SDS011;16038;47.692;9.400;2022-12-18T03:59:19;104.80;;;35.30;;
28926;SDS011;16038;47.692;9.400;2022-12-18T04:01:46;111.10;;;38.10;;
28926;SDS011;16038;47.692;9.400;2022-12-18T04:04:14;112.05;;;39.50;;
28926;SDS011;16038;47.692;9.400;2022-12-18T04:06:41;116.05;;;37.40;;
28926;SDS011;16038;47.692;9.400;2022-12-18T04:09:08;111.32;;;36.67;;
28926;SDS011;16038;47.692;9.400;2022-12-18T04:11:34;107.00;;;35.53;;
28926;SDS011;16038;47.692;9.400;2022-12-18T04:14:00;104.03;;;33.58;;
28926;SDS011;16038;47.692;9.400;2022-12-18T04:16:26;112.20;;;38.53;;
28926;SDS011;16038;47.692;9.400;2022-12-18T04:18:52;108.20;;;35.40;;
28926;SDS011;16038;47.692;9.400;2022-12-18T04:21:18;109.13;;;34.50;;
28926;SDS011;16038;47.692;9.400;2022-12-18T04:23:44;106.53;;;38.88;;
28926;SDS011;16038;47.692;9.400;2022-12-18T04:26:10;116.75;;;40.40;;
28926;SDS011;16038;47.692;9.400;2022-12-18T04:28:35;116.22;;;42.42;;
28926;SDS011;16038;47.692;9.400;2022-12-18T04:31:01;122.13;;;38.33;;
28926;SDS011;16038;47.692;9.400;2022-12-18T04:33:26;112.90;;;39.05;;
28926;SDS011;16038;47.692;9.400;2022-12-18T04:35:52;122.88;;;38.75;;
28926;SDS011;16038;47.692;9.400;2022-12-18T04:38:17;118.90;;;40.03;;
28926;SDS011;16038;47.692;9.400;2022-12-18T04:40:43;117.90;;;37.03;;
28926;SDS011;16038;47.692;9.400;2022-12-18T04:43:08;122.38;;;39.42;;
28926;SDS011;16038;47.692;9.400;2022-12-18T04:45:34;114.95;;;36.63;;
28926;SDS011;16038;47.692;9.400;2022-12-18T04:48:00;123.15;;;38.20;;
28926;SDS011;16038;47.692;9.400;2022-12-18T04:50:27;117.45;;;36.28;;
28926;SDS011;16038;47.692;9.400;2022-12-18T04:52:52;116.82;;;38.05;;
28926;SDS011;16038;47.692;9.400;2022-12-18T04:55:18;123.38;;;36.90;;
28926;SDS011;16038;47.692;9.400;2022-12-18T04:57:44;99.13;;;33.25;;
28926;SDS011;16038;47.692;9.400;2022-12-18T05:00:09;111.78;;;35.95;;
28926;SDS011;16038;47.692;9.400;2022-12-18T05:02:35;106.40;;;35.53;;
28926;SDS011;16038;47.692;9.400;2022-12-18T05:05:00;109.10;;;35.33;;
28926;SDS011;16038;47.692;9.400;2022-12-18T05:07:26;111.20;;;33.67;;
28926;SDS011;16038;47.692;9.400;2022-12-18T05:09:52;114.38;;;35.60;;
28926;SDS011;16038;47.692;9.400;2022-12-18T05:12:17;107.82;;;32.83;;
28926;SDS011;16038;47.692;9.400;2022-12-18T05:14:42;108.72;;;34.60;;
28926;SDS011;16038;47.692;9.400;2022-12-18T05:17:08;115.68;;;35.03;;
28926;SDS011;16038;47.692;9.400;2022-12-18T05:19:33;108.60;;;34.78;;
28926;SDS011;16038;47.692;9.400;2022-12-18T05:21:58;123.13;;;38.40;;
28926;SDS011;16038;47.692;9.400;2022-12-18T05:24:24;105.07;;;32.33;;
28926;SDS011;16038;47.692;9.400;2022-12-18T05:26:49;126.28;;;37.80;;
28926;SDS011;16038;47.692;9.400;2022-12-18T05:29:15;120.07;;;38.17;;
28926;SDS011;16038;47.692;9.400;2022-12-18T05:31:40;112.28;;;35.08;;
28926;SDS011;16038;47.692;9.400;2022-12-18T05:34:06;110.40;;;34.17;;
28926;SDS011;16038;47.692;9.400;2022-12-18T05:36:32;112.13;;;36.55;;
28926;SDS011;16038;47.692;9.400;2022-12-18T05:38:57;104.35;;;34.35;;
28926;SDS011;16038;47.692;9.400;2022-12-18T05:41:23;115.38;;;36.55;;
28926;SDS011;16038;47.692;9.400;2022-12-18T05:43:48;116.63;;;35.28;;
28926;SDS011;16038;47.692;9.400;2022-12-18T05:46:15;114.95;;;37.72;;
28926;SDS011;16038;47.692;9.400;2022-12-18T05:48:43;117.80;;;36.53;;
28926;SDS011;16038;47.692;9.400;2022-12-18T05:51:11;113.18;;;34.67;;
28926;SDS011;16038;47.692;9.400;2022-12-18T05:53:39;111.95;;;37.63;;
28926;SDS011;16038;47.692;9.400;2022-12-18T05:56:05;114.05;;;33.42;;
28926;SDS011;16038;47.692;9.400;2022-12-18T05:58:33;105.68;;;34.88;;
28926;SDS011;16038;47.692;9.400;2022-12-18T06:01:05;119.95;;;38.08;;
28926;SDS011;16038;47.692;9.400;2022-12-18T06:03:33;113.80;;;35.20;;
28926;SDS011;16038;47.692;9.400;2022-12-18T06:05:58;116.97;;;39.17;;
28926;SDS011;16038;47.692;9.400;2022-12-18T06:08:23;119.25;;;39.15;;
28926;SDS011;16038;47.692;9.400;2022-12-18T06:10:50;120.65;;;38.72;;
28926;SDS011;16038;47.692;9.400;2022-12-18T06:13:16;114.63;;;36.10;;
28926;SDS011;16038;47.692;9.400;2022-12-18T06:15:42;111.32;;;34.50;;
28926;SDS011;16038;47.692;9.400;2022-12-18T06:18:07;112.60;;;35.47;;
28926;SDS011;16038;47.692;9.400;2022-12-18T06:20:33;119.43;;;35.55;;
28926;SDS011;16038;47.692;9.400;2022-12-18T06:22:58;117.63;;;37.53;;
28926;SDS011;16038;47.692;9.400;2022-12-18T06:25:24;121.50;;;37.83;;
28926;SDS011;16038;47.692;9.400;2022-12-18T06:27:49;113.45;;;35.00;;
28926;SDS011;16038;47.692;9.400;2022-12-18T06:30:15;125.43;;;37.05;;
28926;SDS011;16038;47.692;9.400;2022-12-18T06:32:40;118.68;;;37.60;;
28926;SDS011;16038;47.692;9.400;2022-12-18T06:35:06;112.72;;;35.47;;
28926;SDS011;16038;47.692;9.400;2022-12-18T06:37:31;111.90;;;34.42;;
28926;SDS011;16038;47.692;9.400;2022-12-18T06:39:57;120.93;;;35.85;;
28926;SDS011;16038;47.692;9.400;2022-12-18T06:42:23;123.57;;;38.67;;
28926;SDS011;16038;47.692;9.400;2022-12-18T06:44:49;107.93;;;34.70;;
28926;SDS011;16038;47.692;9.400;2022-12-18T06:47:14;124.68;;;39.17;;
28926;SDS011;16038;47.692;9.400;2022-12-18T06:49:39;119.63;;;37.80;;
28926;SDS011;16038;47.692;9.400;2022-12-18T06:52:05;111.13;;;34.42;;
28926;SDS011;16038;47.692;9.400;2022-12-18T06:54:30;126.28;;;34.70;;
28926;SDS011;16038;47.692;9.400;2022-12-18T06:56:56;112.10;;;34.33;;
28926;SDS011;16038;47.692;9.400;2022-12-18T06:59:21;120.90;;;36.95;;
28926;SDS011;16038;47.692;9.400;2022-12-18T07:01:46;116.60;;;34.90;;
28926;SDS011;16038;47.692;9.400;2022-12-18T07:04:12;117.97;;;38.33;;
28926;SDS011;16038;47.692;9.400;2022-12-18T07:06:37;105.13;;;34.75;;
28926;SDS011;16038;47.692;9.400;2022-12-18T07:09:02;107.47;;;33.05;;
28926;SDS011;16038;47.692;9.400;2022-12-18T07:11:28;117.03;;;34.67;;
28926;SDS011;16038;47.692;9.400;2022-12-18T07:13:54;114.18;;;35.35;;
28926;SDS011;16038;47.692;9.400;2022-12-18T07:16:20;112.50;;;32.90;;
28926;SDS011;16038;47.692;9.400;2022-12-18T07:18:46;109.25;;;33.45;;
28926;SDS011;16038;47.692;9.400;2022-12-18T07:21:13;117.38;;;34.85;;
28926;SDS011;16038;47.692;9.400;2022-12-18T07:23:40;110.68;;;34.63;;
28926;SDS011;16038;47.692;9.400;2022-12-18T07:26:10;111.70;;;32.42;;
28926;SDS011;16038;47.692;9.400;2022-12-18T07:28:38;104.75;;;32.13;;
28926;SDS011;16038;47.692;9.400;2022-12-18T07:31:08;106.65;;;31.90;;
28926;SDS011;16038;47.692;9.400;2022-12-18T07:33:35;105.70;;;33.45;;
28926;SDS011;16038;47.692;9.400;2022-12-18T07:36:01;122.93;;;33.13;;
28926;SDS011;16038;47.692;9.400;2022-12-18T07:38:31;112.97;;;33.90;;
28926;SDS011;16038;47.692;9.400;2022-12-18T07:41:04;106.63;;;32.78;;
28926;SDS011;16038;47.692;9.400;2022-12-18T07:43:31;108.70;;;33.22;;
28926;SDS011;16038;47.692;9.400;2022-12-18T07:45:57;151.93;;;46.45;;
28926;SDS011;16038;47.692;9.400;2022-12-18T07:48:23;108.90;;;34.63;;
28926;SDS011;16038;47.692;9.400;2022-12-18T07:50:48;108.55;;;34.78;;
28926;SDS011;16038;47.692;9.400;2022-12-18T07:53:13;116.72;;;37.97;;
28926;SDS011;16038;47.692;9.400;2022-12-18T07:55:39;114.40;;;34.50;;
28926;SDS011;16038;47.692;9.400;2022-12-18T07:58:06;104.40;;;35.67;;
28926;SDS011;16038;47.692;9.400;2022-12-18T08:00:32;108.50;;;33.88;;
28926;SDS011;16038;47.692;9.400;2022-12-18T08:02:58;113.95;;;35.78;;
28926;SDS011;16038;47.692;9.400;2022-12-18T08:05:24;112.57;;;35.55;;
28926;SDS011;16038;47.692;9.400;2022-12-18T08:07:50;117.63;;;37.85;;
28926;SDS011;16038;47.692;9.400;2022-12-18T08:10:15;101.53;;;34.95;;
28926;SDS011;16038;47.692;9.400;2022-12-18T08:12:40;104.07;;;34.85;;
28926;SDS011;16038;47.692;9.400;2022-12-18T08:15:06;108.10;;;34.83;;
28926;SDS011;16038;47.692;9.400;2022-12-18T08:17:32;127.72;;;39.55;;
28926;SDS011;16038;47.692;9.400;2022-12-18T08:19:57;119.82;;;40.17;;
28926;SDS011;16038;47.692;9.400;2022-12-18T08:22:23;110.63;;;34.13;;
28926;SDS011;16038;47.692;9.400;2022-12-18T08:24:48;101.65;;;33.83;;
28926;SDS011;16038;47.692;9.400;2022-12-18T08:27:14;108.13;;;41.15;;
28926;SDS011;16038;47.692;9.400;2022-12-18T08:29:39;103.72;;;33.67;;
28926;SDS011;16038;47.692;9.400;2022-12-18T08:32:04;105.20;;;34.78;;
28926;SDS011;16038;47.692;9.400;2022-12-18T08:34:30;105.80;;;35.20;;
28926;SDS011;16038;47.692;9.400;2022-12-18T08:36:55;107.50;;;36.58;;
28926;SDS011;16038;47.692;9.400;2022-12-18T08:39:20;95.10;;;32.95;;
28926;SDS011;16038;47.692;9.400;2022-12-18T08:41:46;102.82;;;34.65;;
28926;SDS011;16038;47.692;9.400;2022-12-18T08:44:31;97.80;;;31.45;;
28926;SDS011;16038;47.692;9.400;2022-12-18T08:47:03;97.18;;;32.35;;
28926;SDS011;16038;47.692;9.400;2022-12-18T08:49:29;99.78;;;33.70;;
28926;SDS011;16038;47.692;9.400;2022-12-18T08:51:55;111.55;;;35.10;;
28926;SDS011;16038;47.692;9.400;2022-12-18T08:54:24;100.30;;;35.08;;
28926;SDS011;16038;47.692;9.400;2022-12-18T08:56:51;93.45;;;30.98;;
28926;SDS011;16038;47.692;9.400;2022-12-18T08:59:17;104.95;;;36.65;;
28926;SDS011;16038;47.692;9.400;2022-12-18T09:01:43;99.93;;;33.33;;
28926;SDS011;16038;47.692;9.400;2022-12-18T09:04:09;97.40;;;35.15;;
28926;SDS011;16038;47.692;9.400;2022-12-18T09:06:35;102.07;;;36.85;;
28926;SDS011;16038;47.692;9.400;2022-12-18T09:09:01;99.55;;;38.10;;
28926;SDS011;16038;47.692;9.400;2022-12-18T09:11:28;94.30;;;31.73;;
28926;SDS011;16038;47.692;9.400;2022-12-18T09:13:54;99.82;;;33.38;;
28926;SDS011;16038;47.692;9.400;2022-12-18T09:16:21;99.38;;;33.72;;
28926;SDS011;16038;47.692;9.400;2022-12-18T09:18:47;90.85;;;32.90;;
28926;SDS011;16038;47.692;9.400;2022-12-18T09:21:17;99.97;;;39.47;;
28926;SDS011;16038;47.692;9.400;2022-12-18T09:23:50;96.38;;;33.22;;
28926;SDS011;16038;47.692;9.400;2022-12-18T09:28:42;100.40;;;33.92;;
28926;SDS011;16038;47.692;9.400;2022-12-18T09:31:10;96.25;;;33.58;;
28926;SDS011;16038;47.692;9.400;2022-12-18T09:33:37;90.40;;;35.50;;
28926;SDS011;16038;47.692;9.400;2022-12-18T09:36:03;103.38;;;43.45;;
28926;SDS011;16038;47.692;9.400;2022-12-18T09:38:30;104.00;;;33.80;;
28926;SDS011;16038;47.692;9.400;2022-12-18T09:41:13;90.18;;;30.25;;
28926;SDS011;16038;47.692;9.400;2022-12-18T09:43:57;98.18;;;31.58;;
28926;SDS011;16038;47.692;9.400;2022-12-18T09:46:29;89.28;;;31.13;;
28926;SDS011;16038;47.692;9.400;2022-12-18T09:49:00;99.05;;;30.77;;
28926;SDS011;16038;47.692;9.400;2022-12-18T09:51:42;99.43;;;39.63;;
28926;SDS011;16038;47.692;9.400;2022-12-18T09:54:32;98.38;;;32.22;;
28926;SDS011;16038;47.692;9.400;2022-12-18T09:57:01;95.20;;;32.58;;
28926;SDS011;16038;47.692;9.400;2022-12-18T09:59:37;98.75;;;36.70;;
28926;SDS011;16038;47.692;9.400;2022-12-18T10:02:17;99.78;;;38.00;;
28926;SDS011;16038;47.692;9.400;2022-12-18T10:05:11;95.75;;;33.05;;
28926;SDS011;16038;47.692;9.400;2022-12-18T10:10:46;91.63;;;30.17;;
28926;SDS011;16038;47.692;9.400;2022-12-18T10:13:21;93.88;;;35.45;;
28926;SDS011;16038;47.692;9.400;2022-12-18T10:15:58;98.72;;;34.35;;
28926;SDS011;16038;47.692;9.400;2022-12-18T10:21:22;107.05;;;36.38;;
28926;SDS011;16038;47.692;9.400;2022-12-18T10:26:37;97.28;;;33.00;;
28926;SDS011;16038;47.692;9.400;2022-12-18T10:29:07;101.97;;;35.88;;
28926;SDS011;16038;47.692;9.400;2022-12-18T10:31:36;89.40;;;29.65;;
28926;SDS011;16038;47.692;9.400;2022-12-18T10:34:02;103.82;;;36.25;;
28926;SDS011;16038;47.692;9.400;2022-12-18T10:36:28;95.65;;;36.45;;
28926;SDS011;16038;47.692;9.400;2022-12-18T10:38:54;92.13;;;34.20;;
28926;SDS011;16038;47.692;9.400;2022-12-18T10:41:40;88.05;;;31.17;;
28926;SDS011;16038;47.692;9.400;2022-12-18T10:44:12;100.85;;;34.60;;
28926;SDS011;16038;47.692;9.400;2022-12-18T10:46:44;107.00;;;34.60;;
28926;SDS011;16038;47.692;9.400;2022-12-18T10:49:23;92.47;;;33.15;;
28926;SDS011;16038;47.692;9.400;2022-12-18T10:52:03;97.97;;;35.83;;
28926;SDS011;16038;47.692;9.400;2022-12-18T10:54:38;101.85;;;34.88;;
28926;SDS011;16038;47.692;9.400;2022-12-18T10:57:17;104.97;;;34.58;;
28926;SDS011;16038;47.692;9.400;2022-12-18T10:59:52;93.90;;;32.53;;
28926;SDS011;16038;47.692;9.400;2022-12-18T11:02:35;102.43;;;35.83;;
28926;SDS011;16038;47.692;9.400;2022-12-18T11:05:02;102.13;;;36.28;;
28926;SDS011;16038;47.692;9.400;2022-12-18T11:07:48;95.82;;;36.63;;
28926;SDS011;16038;47.692;9.400;2022-12-18T11:10:16;103.13;;;38.22;;
28926;SDS011;16038;47.692;9.400;2022-12-18T11:12:43;93.70;;;33.30;;
28926;SDS011;16038;47.692;9.400;2022-12-18T11:15:16;100.82;;;36.78;;
28926;SDS011;16038;47.692;9.400;2022-12-18T11:17:45;96.05;;;34.72;;
28926;SDS011;16038;47.692;9.400;2022-12-18T11:22:56;93.25;;;33.67;;
28926;SDS011;16038;47.692;9.400;2022-12-18T11:25:23;94.45;;;32.58;;
28926;SDS011;16038;47.692;9.400;2022-12-18T11:27:53;90.85;;;33.28;;
28926;SDS011;16038;47.692;9.400;2022-12-18T11:30:31;101.28;;;33.33;;
28926;SDS011;16038;47.692;9.400;2022-12-18T11:32:59;91.00;;;33.72;;
28926;SDS011;16038;47.692;9.400;2022-12-18T11:35:55;102.40;;;35.65;;
28926;SDS011;16038;47.692;9.400;2022-12-18T11:38:28;101.43;;;33.70;;
28926;SDS011;16038;47.692;9.400;2022-12-18T11:43:27;98.50;;;36.35;;
28926;SDS011;16038;47.692;9.400;2022-12-18T11:46:05;107.35;;;40.38;;
28926;SDS011;16038;47.692;9.400;2022-12-18T11:48:37;101.13;;;35.40;;
28926;SDS011;16038;47.692;9.400;2022-12-18T11:51:17;87.07;;;31.70;;
28926;SDS011;16038;47.692;9.400;2022-12-18T11:53:51;99.97;;;39.03;;
28926;SDS011;16038;47.692;9.400;2022-12-18T11:56:29;95.40;;;32.65;;
28926;SDS011;16038;47.692;9.400;2022-12-18T12:07:15;100.68;;;33.13;;
28926;SDS011;16038;47.692;9.400;2022-12-18T12:15:10;93.60;;;32.75;;
28926;SDS011;16038;47.692;9.400;2022-12-18T12:17:50;99.00;;;32.83;;
28926;SDS011;16038;47.692;9.400;2022-12-18T12:20:39;86.38;;;31.02;;
28926;SDS011;16038;47.692;9.400;2022-12-18T12:25:41;105.22;;;35.85;;
28926;SDS011;16038;47.692;9.400;2022-12-18T12:33:49;97.40;;;34.47;;
28926;SDS011;16038;47.692;9.400;2022-12-18T12:38:57;108.28;;;36.25;;
28926;SDS011;16038;47.692;9.400;2022-12-18T12:44:16;101.05;;;33.00;;
28926;SDS011;16038;47.692;9.400;2022-12-18T12:46:45;99.63;;;33.17;;
28926;SDS011;16038;47.692;9.400;2022-12-18T12:49:17;99.60;;;34.42;;
28926;SDS011;16038;47.692;9.400;2022-12-18T12:51:50;100.88;;;34.50;;
28926;SDS011;16038;47.692;9.400;2022-12-18T12:54:24;104.57;;;35.58;;
28926;SDS011;16038;47.692;9.400;2022-12-18T12:59:31;113.80;;;36.38;;
28926;SDS011;16038;47.692;9.400;2022-12-18T13:05:19;110.47;;;36.75;;
28926;SDS011;16038;47.692;9.400;2022-12-18T13:07:54;164.13;;;54.53;;
28926;SDS011;16038;47.692;9.400;2022-12-18T13:10:43;114.15;;;40.72;;
28926;SDS011;16038;47.692;9.400;2022-12-18T13:13:12;131.38;;;45.22;;
28926;SDS011;16038;47.692;9.400;2022-12-18T13:15:41;147.40;;;49.70;;
28926;SDS011;16038;47.692;9.400;2022-12-18T13:18:13;106.28;;;35.92;;
28926;SDS011;16038;47.692;9.400;2022-12-18T13:20:45;106.93;;;35.97;;
28926;SDS011;16038;47.692;9.400;2022-12-18T13:23:34;96.05;;;33.10;;
28926;SDS011;16038;47.692;9.400;2022-12-18T13:33:43;112.18;;;38.50;;
28926;SDS011;16038;47.692;9.400;2022-12-18T13:36:29;104.32;;;34.95;;
28926;SDS011;16038;47.692;9.400;2022-12-18T13:41:43;106.07;;;33.45;;
28926;SDS011;16038;47.692;9.400;2022-12-18T13:44:23;107.72;;;33.95;;
28926;SDS011;16038;47.692;9.400;2022-12-18T13:46:50;108.65;;;34.47;;
28926;SDS011;16038;47.692;9.400;2022-12-18T13:49:24;107.25;;;34.90;;
28926;SDS011;16038;47.692;9.400;2022-12-18T13:52:16;109.85;;;34.58;;
28926;SDS011;16038;47.692;9.400;2022-12-18T13:54:45;108.82;;;34.05;;
28926;SDS011;16038;47.692;9.400;2022-12-18T13:57:31;112.43;;;34.25;;
28926;SDS011;16038;47.692;9.400;2022-12-18T14:00:16;114.63;;;36.25;;
28926;SDS011;16038;47.692;9.400;2022-12-18T14:02:44;101.45;;;33.22;;
28926;SDS011;16038;47.692;9.400;2022-12-18T14:05:21;110.32;;;35.38;;
28926;SDS011;16038;47.692;9.400;2022-12-18T14:07:53;126.85;;;41.17;;
28926;SDS011;16038;47.692;9.400;2022-12-18T14:10:20;105.38;;;33.95;;
28926;SDS011;16038;47.692;9.400;2022-12-18T14:12:47;110.18;;;36.83;;
28926;SDS011;16038;47.692;9.400;2022-12-18T14:15:26;105.22;;;33.25;;
28926;SDS011;16038;47.692;9.400;2022-12-18T14:17:59;100.65;;;33.42;;
28926;SDS011;16038;47.692;9.400;2022-12-18T14:20:39;108.27;;;34.47;;
28926;SDS011;16038;47.692;9.400;2022-12-18T14:23:24;111.03;;;35.00;;
28926;SDS011;16038;47.692;9.400;2022-12-18T14:25:57;104.63;;;32.90;;
28926;SDS011;16038;47.692;9.400;2022-12-18T14:28:22;109.82;;;33.60;;
28926;SDS011;16038;47.692;9.400;2022-12-18T14:30:49;97.90;;;32.88;;
28926;SDS011;16038;47.692;9.400;2022-12-18T14:33:16;102.72;;;35.33;;
28926;SDS011;16038;47.692;9.400;2022-12-18T14:38:57;100.18;;;32.25;;
28926;SDS011;16038;47.692;9.400;2022-12-18T14:41:16;102.13;;;34.80;;
28926;SDS011;16038;47.692;9.400;2022-12-18T14:43:44;108.82;;;39.83;;
28926;SDS011;16038;47.692;9.400;2022-12-18T14:49:49;120.28;;;42.78;;
28926;SDS011;16038;47.692;9.400;2022-12-18T14:51:56;112.40;;;37.03;;
28926;SDS011;16038;47.692;9.400;2022-12-18T14:54:27;101.85;;;35.58;;
28926;SDS011;16038;47.692;9.400;2022-12-18T14:59:22;103.93;;;34.30;;
28926;SDS011;16038;47.692;9.400;2022-12-18T15:04:42;108.47;;;35.00;;
28926;SDS011;16038;47.692;9.400;2022-12-18T15:12:37;111.20;;;37.45;;
28926;SDS011;16038;47.692;9.400;2022-12-18T15:18:03;119.30;;;35.97;;
28926;SDS011;16038;47.692;9.400;2022-12-18T15:20:49;120.10;;;34.28;;
28926;SDS011;16038;47.692;9.400;2022-12-18T15:23:24;108.32;;;35.67;;
28926;SDS011;16038;47.692;9.400;2022-12-18T15:26:08;112.35;;;34.53;;
28926;SDS011;16038;47.692;9.400;2022-12-18T15:28:44;108.07;;;35.30;;
28926;SDS011;16038;47.692;9.400;2022-12-18T15:33:40;115.50;;;37.55;;
28926;SDS011;16038;47.692;9.400;2022-12-18T15:36:15;125.53;;;38.08;;
28926;SDS011;16038;47.692;9.400;2022-12-18T15:38:45;117.47;;;35.97;;
28926;SDS011;16038;47.692;9.400;2022-12-18T15:41:15;121.57;;;39.83;;
28926;SDS011;16038;47.692;9.400;2022-12-18T15:43:43;131.68;;;42.97;;
28926;SDS011;16038;47.692;9.400;2022-12-18T15:46:13;124.38;;;39.22;;
28926;SDS011;16038;47.692;9.400;2022-12-18T15:48:44;122.55;;;39.72;;
28926;SDS011;16038;47.692;9.400;2022-12-18T15:51:12;112.35;;;37.42;;
28926;SDS011;16038;47.692;9.400;2022-12-18T15:53:41;118.03;;;33.83;;
28926;SDS011;16038;47.692;9.400;2022-12-18T15:56:10;128.32;;;38.97;;
28926;SDS011;16038;47.692;9.400;2022-12-18T15:58:55;130.88;;;38.50;;
28926;SDS011;16038;47.692;9.400;2022-12-18T16:01:22;123.80;;;36.28;;
28926;SDS011;16038;47.692;9.400;2022-12-18T16:03:49;127.13;;;38.72;;
28926;SDS011;16038;47.692;9.400;2022-12-18T16:06:15;125.78;;;37.78;;
28926;SDS011;16038;47.692;9.400;2022-12-18T16:08:40;119.45;;;37.30;;